createdAt,value
2022-07-31T00:02:57.685Z,15.73
2022-07-31T00:05:29.223Z,14.55
2022-07-31T00:08:01.812Z,14.50
2022-07-31T00:13:17.882Z,14.13
2022-07-31T00:15:49.190Z,15.35
2022-07-31T00:18:20.332Z,14.90
2022-07-31T00:20:51.482Z,15.73
2022-07-31T00:23:22.593Z,14.70
2022-07-31T00:25:53.774Z,14.55
2022-07-31T00:28:25.176Z,14.75
2022-07-31T00:30:56.584Z,14.00
2022-07-31T00:33:28.836Z,14.43
2022-07-31T00:36:00.229Z,13.93
2022-07-31T00:41:18.863Z,13.55
2022-07-31T00:43:49.949Z,14.23
2022-07-31T00:46:21.286Z,15.43
2022-07-31T00:48:54.719Z,15.07
2022-07-31T00:51:26.701Z,17.10
2022-07-31T00:53:58.230Z,16.42
2022-07-31T00:56:29.692Z,15.63
2022-07-31T00:59:01.783Z,16.25
2022-07-31T01:01:33.875Z,16.52
2022-07-31T01:04:05.281Z,14.32
2022-07-31T01:06:42.326Z,14.88
2022-07-31T01:09:16.097Z,14.63
2022-07-31T01:12:25.892Z,15.18
2022-07-31T01:15:01.883Z,13.82
2022-07-31T01:17:34.926Z,17.80
2022-07-31T01:20:13.859Z,14.98
2022-07-31T01:23:23.015Z,12.88
2022-07-31T01:26:42.769Z,13.55
2022-07-31T01:29:28.859Z,14.50
2022-07-31T01:32:05.116Z,14.75
2022-07-31T01:34:50.150Z,13.70
2022-07-31T01:37:36.200Z,14.52
2022-07-31T01:40:14.710Z,14.07
2022-07-31T01:42:57.905Z,14.55
2022-07-31T01:45:32.409Z,14.55
2022-07-31T01:48:05.411Z,14.00
2022-07-31T01:50:44.289Z,14.45
2022-07-31T01:53:20.007Z,14.00
2022-07-31T01:56:03.601Z,14.52
2022-07-31T01:58:45.563Z,14.10
2022-07-31T02:01:48.830Z,13.50
2022-07-31T02:04:23.578Z,14.93
2022-07-31T02:06:56.030Z,15.00
2022-07-31T02:09:28.281Z,14.85
2022-07-31T02:12:00.423Z,13.88
2022-07-31T02:14:35.234Z,13.88
2022-07-31T02:17:07.760Z,13.88
2022-07-31T02:20:15.910Z,14.30
2022-07-31T02:25:18.727Z,13.77
2022-07-31T02:27:54.363Z,14.43
2022-07-31T02:30:38.892Z,14.10
2022-07-31T02:33:27.465Z,14.75
2022-07-31T02:38:30.471Z,14.25
2022-07-31T02:41:05.448Z,14.27
2022-07-31T02:43:37.186Z,14.57
2022-07-31T02:46:24.704Z,14.40
2022-07-31T02:48:57.368Z,13.90
2022-07-31T02:51:28.954Z,14.80
2022-07-31T02:54:13.045Z,13.48
2022-07-31T02:56:44.971Z,14.20
2022-07-31T02:59:16.407Z,14.25
2022-07-31T03:02:01.572Z,13.65
2022-07-31T03:04:35.469Z,14.55
2022-07-31T03:07:06.828Z,13.75
2022-07-31T03:09:39.059Z,13.63
2022-07-31T03:12:36.172Z,14.70
2022-07-31T03:15:09.635Z,14.02
2022-07-31T03:17:42.790Z,14.27
2022-07-31T03:23:05.817Z,14.95
2022-07-31T03:25:45.429Z,14.55
2022-07-31T03:28:16.868Z,13.93
2022-07-31T03:30:48.958Z,14.52
2022-07-31T03:33:20.531Z,14.35
2022-07-31T03:35:54.707Z,14.40
2022-07-31T03:38:39.199Z,14.13
2022-07-31T03:41:20.048Z,14.30
2022-07-31T03:43:52.621Z,14.40
2022-07-31T03:46:27.057Z,14.35
2022-07-31T03:48:58.683Z,14.02
2022-07-31T03:51:31.228Z,14.10
2022-07-31T03:54:02.657Z,14.52
2022-07-31T03:59:48.197Z,14.70
2022-07-31T04:02:20.444Z,14.02
2022-07-31T04:07:24.952Z,13.30
2022-07-31T04:09:56.561Z,13.68
2022-07-31T04:12:28.028Z,14.35
2022-07-31T04:14:59.302Z,14.00
2022-07-31T04:17:30.906Z,14.50
2022-07-31T04:20:05.721Z,14.00
2022-07-31T04:22:37.844Z,13.93
2022-07-31T04:25:18.604Z,13.02
2022-07-31T04:27:53.567Z,14.60
2022-07-31T04:33:09.087Z,13.50
2022-07-31T04:35:41.775Z,16.05
2022-07-31T04:38:13.703Z,15.82
2022-07-31T04:40:46.621Z,14.98
2022-07-31T04:43:18.419Z,18.95
2022-07-31T04:45:49.812Z,17.42
2022-07-31T04:48:21.261Z,16.65
2022-07-31T04:50:52.545Z,16.17
2022-07-31T04:53:23.759Z,15.50
2022-07-31T04:56:15.229Z,15.82
2022-07-31T04:58:46.425Z,14.95
2022-07-31T05:01:18.022Z,16.52
2022-07-31T05:03:49.410Z,14.80
2022-07-31T05:06:20.956Z,16.30
2022-07-31T05:08:53.140Z,15.45
2022-07-31T05:14:10.213Z,15.98
2022-07-31T05:16:41.862Z,15.87
2022-07-31T05:19:14.759Z,14.52
2022-07-31T05:21:57.203Z,15.57
2022-07-31T05:24:50.116Z,15.02
2022-07-31T05:27:22.967Z,15.57
2022-07-31T05:29:57.289Z,15.25
2022-07-31T05:32:29.823Z,14.10
2022-07-31T05:35:01.739Z,14.65
2022-07-31T05:40:17.956Z,13.63
2022-07-31T05:43:07.391Z,13.98
2022-07-31T05:45:58.813Z,14.23
2022-07-31T05:48:34.075Z,14.13
2022-07-31T05:51:05.919Z,14.65
2022-07-31T05:53:37.452Z,13.98
2022-07-31T05:56:27.650Z,15.88
2022-07-31T05:59:02.358Z,14.82
2022-07-31T06:01:34.078Z,14.68
2022-07-31T06:04:09.982Z,14.13
2022-07-31T06:06:45.531Z,13.68
2022-07-31T06:09:24.482Z,15.25
2022-07-31T06:12:35.737Z,14.23
2022-07-31T06:15:07.461Z,13.55
2022-07-31T06:17:44.369Z,13.77
2022-07-31T06:20:28.528Z,14.38
2022-07-31T06:22:59.944Z,14.10
2022-07-31T06:25:39.058Z,14.27
2022-07-31T06:28:10.998Z,13.20
2022-07-31T06:30:44.493Z,14.35
2022-07-31T06:33:17.278Z,13.98
2022-07-31T06:36:07.745Z,14.25
2022-07-31T06:38:52.311Z,13.68
2022-07-31T06:41:51.813Z,14.10
2022-07-31T06:44:34.771Z,13.32
2022-07-31T06:47:27.182Z,13.60
2022-07-31T06:50:16.723Z,13.38
2022-07-31T06:53:02.120Z,13.73
2022-07-31T06:55:33.851Z,13.43
2022-07-31T06:58:05.298Z,14.20
2022-07-31T07:00:37.312Z,13.82
2022-07-31T07:03:08.692Z,14.30
2022-07-31T07:05:59.888Z,13.85
2022-07-31T07:08:32.964Z,14.15
2022-07-31T07:11:04.393Z,13.38
2022-07-31T07:13:45.912Z,12.63
2022-07-31T07:16:21.181Z,13.27
2022-07-31T07:18:52.689Z,14.27
2022-07-31T07:21:27.926Z,13.27
2022-07-31T07:24:00.642Z,13.25
2022-07-31T07:26:47.573Z,14.52
2022-07-31T07:29:20.069Z,13.95
2022-07-31T07:31:51.648Z,13.57
2022-07-31T07:34:42.628Z,13.25
2022-07-31T07:37:25.079Z,13.43
2022-07-31T07:39:58.026Z,14.18
2022-07-31T07:42:56.970Z,14.27
2022-07-31T07:45:31.284Z,14.05
2022-07-31T07:48:06.576Z,12.73
2022-07-31T07:51:10.449Z,13.45
2022-07-31T07:54:12.319Z,13.50
2022-07-31T07:57:02.755Z,13.07
2022-07-31T07:59:53.586Z,13.35
2022-07-31T08:03:46.411Z,13.52
2022-07-31T08:05:43.213Z,11.95
2022-07-31T08:08:14.679Z,13.20
2022-07-31T08:10:51.968Z,13.27
2022-07-31T08:13:27.708Z,13.98
2022-07-31T08:16:34.324Z,13.02
2022-07-31T08:19:06.188Z,13.13
2022-07-31T08:21:41.569Z,13.20
2022-07-31T08:24:14.880Z,12.68
2022-07-31T08:27:10.554Z,13.73
2022-07-31T08:29:43.461Z,13.60
2022-07-31T08:32:22.762Z,13.20
2022-07-31T08:35:12.480Z,12.80
2022-07-31T08:37:59.208Z,13.68
2022-07-31T08:40:43.177Z,13.27
2022-07-31T08:44:00.080Z,12.75
2022-07-31T08:46:09.459Z,13.65
2022-07-31T08:48:47.946Z,12.50
2022-07-31T08:51:20.196Z,12.98
2022-07-31T08:54:13.113Z,12.95
2022-07-31T08:56:47.845Z,13.63
2022-07-31T08:59:20.068Z,14.15
2022-07-31T09:01:52.847Z,13.15
2022-07-31T09:04:26.691Z,13.80
2022-07-31T09:07:01.729Z,12.57
2022-07-31T09:09:51.126Z,13.43
2022-07-31T09:12:36.322Z,13.68
2022-07-31T09:15:33.544Z,13.60
2022-07-31T09:18:19.405Z,13.57
2022-07-31T09:21:07.680Z,13.43
2022-07-31T09:23:49.028Z,13.93
2022-07-31T09:26:20.760Z,13.05
2022-07-31T09:28:53.934Z,14.32
2022-07-31T09:31:25.479Z,13.40
2022-07-31T09:34:04.174Z,13.18
2022-07-31T09:36:38.234Z,12.27
2022-07-31T09:39:29.662Z,13.20
2022-07-31T09:45:28.917Z,12.98
2022-07-31T09:51:05.503Z,13.13
2022-07-31T09:53:48.020Z,13.70
2022-07-31T09:56:38.352Z,13.65
2022-07-31T09:59:11.746Z,13.57
2022-07-31T10:01:43.963Z,13.52
2022-07-31T10:04:16.830Z,13.48
2022-07-31T10:06:53.215Z,13.85
2022-07-31T10:09:26.912Z,15.02
2022-07-31T10:12:16.557Z,16.23
2022-07-31T10:14:52.704Z,16.33
2022-07-31T10:17:33.785Z,18.45
2022-07-31T10:20:25.538Z,17.15
2022-07-31T10:23:23.621Z,17.98
2022-07-31T10:26:06.449Z,17.80
2022-07-31T10:28:40.679Z,16.58
2022-07-31T10:31:14.606Z,17.67
2022-07-31T10:33:49.050Z,17.08
2022-07-31T10:36:42.028Z,16.67
2022-07-31T10:39:55.367Z,18.27
2022-07-31T10:42:48.394Z,17.25
2022-07-31T10:45:19.891Z,18.10
2022-07-31T10:48:14.178Z,20.15
2022-07-31T10:51:06.377Z,19.17
2022-07-31T10:54:12.907Z,21.65
2022-07-31T10:57:03.532Z,23.00
2022-07-31T10:59:45.679Z,22.58
2022-07-31T11:02:38.699Z,22.83
2022-07-31T11:05:29.473Z,22.85
2022-07-31T11:08:13.463Z,23.30
2022-07-31T11:10:58.521Z,21.70
2022-07-31T11:14:16.909Z,23.85
2022-07-31T11:17:06.081Z,22.58
2022-07-31T11:19:54.344Z,21.60
2022-07-31T11:22:32.195Z,22.13
2022-07-31T11:25:04.215Z,22.50
2022-07-31T11:27:36.109Z,21.77
2022-07-31T11:30:13.680Z,20.88
2022-07-31T11:33:04.111Z,21.65
2022-07-31T11:35:35.959Z,22.85
2022-07-31T11:38:07.346Z,22.45
2022-07-31T11:40:38.800Z,22.17
2022-07-31T11:43:25.787Z,20.98
2022-07-31T11:45:58.218Z,21.65
2022-07-31T11:48:38.993Z,19.80
2022-07-31T11:51:12.230Z,21.48
2022-07-31T11:53:44.367Z,20.38
2022-07-31T11:56:17.804Z,22.25
2022-07-31T11:58:57.596Z,21.38
2022-07-31T12:01:30.679Z,20.23
2022-07-31T12:04:09.055Z,21.33
2022-07-31T12:06:41.818Z,21.27
2022-07-31T12:10:02.310Z,20.42
2022-07-31T12:12:06.713Z,20.48
2022-07-31T12:14:41.074Z,19.90
2022-07-31T12:17:23.150Z,21.13
2022-07-31T12:19:57.884Z,21.92
2022-07-31T12:22:29.528Z,22.58
2022-07-31T12:25:08.638Z,21.17
2022-07-31T12:27:40.330Z,21.67
2022-07-31T12:30:19.570Z,21.25
2022-07-31T12:32:50.981Z,21.45
2022-07-31T12:35:23.791Z,23.33
2022-07-31T12:40:29.675Z,21.23
2022-07-31T12:43:01.074Z,22.10
2022-07-31T12:45:38.105Z,22.42
2022-07-31T12:50:53.762Z,22.00
2022-07-31T12:53:25.182Z,23.55
2022-07-31T12:55:56.615Z,22.85
2022-07-31T12:58:38.545Z,22.77
2022-07-31T13:01:10.003Z,22.50
2022-07-31T13:06:34.088Z,21.80
2022-07-31T13:09:07.332Z,21.65
2022-07-31T13:11:46.373Z,21.80
2022-07-31T13:14:38.949Z,22.30
2022-07-31T13:17:10.025Z,22.30
2022-07-31T13:19:41.167Z,21.63
2022-07-31T13:22:12.433Z,21.70
2022-07-31T13:24:43.841Z,21.20
2022-07-31T13:30:18.790Z,22.60
2022-07-31T13:32:49.916Z,22.55
2022-07-31T13:35:29.238Z,22.10
2022-07-31T13:38:00.796Z,21.75
2022-07-31T13:40:49.992Z,21.95
2022-07-31T13:43:21.335Z,22.05
2022-07-31T13:45:54.075Z,21.70
2022-07-31T13:48:25.356Z,21.77
2022-07-31T13:50:57.315Z,23.00
2022-07-31T13:56:38.894Z,21.58
2022-07-31T13:59:16.443Z,21.45
2022-07-31T14:02:04.328Z,22.55
2022-07-31T14:04:44.754Z,23.60
2022-07-31T14:08:29.837Z,23.20
2022-07-31T14:11:35.641Z,23.63
2022-07-31T14:14:31.718Z,21.98
2022-07-31T14:37:36.576Z,21.10
2022-07-31T14:41:06.547Z,21.35
2022-07-31T14:44:00.321Z,20.10
2022-07-31T14:55:45.665Z,20.53
2022-07-31T14:59:22.530Z,21.98
2022-07-31T15:02:23.289Z,22.33
2022-07-31T15:06:39.697Z,22.50
2022-07-31T15:11:58.401Z,22.38
2022-07-31T15:30:05.553Z,20.88
2022-07-31T15:33:05.660Z,19.73
2022-07-31T15:36:17.860Z,18.77
2022-07-31T15:39:36.566Z,20.95
2022-07-31T15:42:27.769Z,20.08
2022-07-31T15:57:49.553Z,19.65
2022-07-31T16:01:04.023Z,19.98
2022-07-31T16:03:43.622Z,19.08
2022-07-31T16:06:52.334Z,19.90
2022-07-31T16:22:30.741Z,20.65
2022-07-31T16:25:50.818Z,20.25
2022-07-31T16:28:47.549Z,19.35
2022-07-31T16:49:55.759Z,19.10
2022-07-31T16:52:57.574Z,18.80
2022-07-31T16:56:00.786Z,19.27
2022-07-31T16:58:54.538Z,19.63
2022-07-31T17:10:55.408Z,18.75
2022-07-31T17:13:49.725Z,19.58
2022-07-31T17:16:20.929Z,19.92
2022-07-31T17:19:42.999Z,19.80
2022-07-31T17:22:55.923Z,18.15
2022-07-31T17:25:50.672Z,19.40
2022-07-31T17:41:07.013Z,20.13
2022-07-31T17:43:59.635Z,18.35
2022-07-31T17:46:54.363Z,18.85
2022-07-31T17:51:59.717Z,19.15
2022-07-31T17:54:58.556Z,18.67
2022-07-31T18:07:51.486Z,19.55
2022-07-31T18:13:14.009Z,19.08
2022-07-31T18:15:45.301Z,18.67
2022-07-31T18:18:17.012Z,19.80
2022-07-31T18:21:30.746Z,19.98
2022-07-31T18:24:28.839Z,19.20
2022-07-31T18:27:00.140Z,19.85
2022-07-31T18:42:25.492Z,18.70
2022-07-31T18:45:16.677Z,19.02
2022-07-31T18:48:08.234Z,17.92
2022-07-31T18:51:04.783Z,18.10
2022-07-31T19:12:08.266Z,18.92
2022-07-31T19:15:21.022Z,17.45
2022-07-31T19:35:58.331Z,18.13
2022-07-31T19:38:56.450Z,18.33
2022-07-31T19:42:11.860Z,18.67
2022-07-31T19:44:59.869Z,18.40
2022-07-31T19:59:21.657Z,17.42
2022-07-31T20:02:35.816Z,18.90
2022-07-31T20:05:50.864Z,18.63
2022-07-31T20:18:42.207Z,17.80
2022-07-31T20:21:51.758Z,18.17
2022-07-31T20:24:43.707Z,18.40
2022-07-31T21:03:39.763Z,17.65
2022-07-31T21:06:10.976Z,18.35
2022-07-31T21:08:43.106Z,18.65
2022-07-31T21:11:14.522Z,18.77
2022-07-31T21:13:46.849Z,17.60
2022-07-31T21:16:18.386Z,18.55
2022-07-31T21:18:52.031Z,17.65
2022-07-31T21:21:24.600Z,17.80
2022-07-31T21:23:56.029Z,18.45
2022-07-31T21:26:29.904Z,17.73
2022-07-31T21:29:01.551Z,18.08
2022-07-31T21:31:33.006Z,17.88
2022-07-31T21:34:04.629Z,19.05
2022-07-31T21:36:36.292Z,18.65
2022-07-31T21:39:07.806Z,18.10
2022-07-31T21:41:50.227Z,17.85
2022-07-31T21:44:23.149Z,18.10
2022-07-31T21:46:58.541Z,17.70
2022-07-31T21:49:38.391Z,17.83
2022-07-31T21:52:10.553Z,19.15
2022-07-31T21:54:41.795Z,18.10
2022-07-31T21:57:12.749Z,18.73
2022-07-31T21:59:44.119Z,17.88
2022-07-31T22:02:15.505Z,18.23
2022-07-31T22:05:04.454Z,17.83
2022-07-31T22:07:49.847Z,19.08
2022-07-31T22:10:25.130Z,18.52
2022-07-31T22:12:56.824Z,18.27
2022-07-31T22:15:50.403Z,17.73
2022-07-31T22:18:19.748Z,18.45
2022-07-31T22:20:51.467Z,18.10
2022-07-31T22:23:22.949Z,18.35
2022-07-31T22:25:54.474Z,18.52
2022-07-31T22:28:27.022Z,18.33
2022-07-31T22:30:58.944Z,18.00
2022-07-31T22:33:30.390Z,17.48
2022-07-31T22:36:08.381Z,18.85
2022-07-31T22:38:40.224Z,17.75
2022-07-31T22:41:13.813Z,18.02
2022-07-31T22:46:38.455Z,18.40
2022-07-31T22:49:11.474Z,17.65
2022-07-31T22:51:46.211Z,18.63
2022-07-31T22:54:17.799Z,18.52
2022-07-31T22:56:49.107Z,18.05
2022-07-31T22:59:21.306Z,17.45
2022-07-31T23:01:52.993Z,18.95
2022-07-31T23:07:14.251Z,17.00
2022-07-31T23:09:45.608Z,18.25
2022-07-31T23:12:16.981Z,18.23
2022-07-31T23:14:48.210Z,18.67
2022-07-31T23:17:22.500Z,18.08
2022-07-31T23:19:55.090Z,18.90
2022-07-31T23:22:30.924Z,18.02
2022-07-31T23:25:07.822Z,18.63
2022-07-31T23:27:39.322Z,18.77
2022-07-31T23:30:11.478Z,17.92
2022-07-31T23:32:42.843Z,18.60
2022-07-31T23:35:14.028Z,19.15
2022-07-31T23:37:46.064Z,18.70
2022-07-31T23:40:17.379Z,18.75
2022-07-31T23:42:48.774Z,19.48
2022-07-31T23:45:20.686Z,18.85
2022-07-31T23:47:52.926Z,18.80
2022-07-31T23:50:24.034Z,18.42
2022-07-31T23:52:55.287Z,19.52
2022-07-31T23:55:26.765Z,18.80
2022-07-31T23:57:58.047Z,17.88
